sensor_id;sensor_type;location;lat;lon;timestamp;pressure;altitude;pressure_sealevel;temperature;humidity
7026;BME280;3554;42.132;24.786;2023-04-06T00:00:42;98973.34;;;4.19;100.00
7026;BME280;3554;42.132;24.786;2023-04-06T00:03:09;98958.13;;;4.04;100.00
7026;BME280;3554;42.132;24.786;2023-04-06T00:05:36;98977.91;;;4.08;100.00
7026;BME280;3554;42.132;24.786;2023-04-06T00:08:03;98981.31;;;4.10;100.00
7026;BME280;3554;42.132;24.786;2023-04-06T00:10:29;98971.81;;;4.09;100.00
7026;BME280;3554;42.132;24.786;2023-04-06T00:12:57;98970.84;;;4.15;100.00
7026;BME280;3554;42.132;24.786;2023-04-06T00:15:24;98979.59;;;4.11;100.00
7026;BME280;3554;42.132;24.786;2023-04-06T00:17:52;98974.41;;;4.09;100.00
7026;BME280;3554;42.132;24.786;2023-04-06T00:20:19;98975.53;;;3.98;100.00
7026;BME280;3554;42.132;24.786;2023-04-06T00:22:46;98974.56;;;4.03;100.00
7026;BME280;3554;42.132;24.786;2023-04-06T00:25:13;98963.50;;;3.95;100.00
7026;BME280;3554;42.132;24.786;2023-04-06T00:27:41;98960.84;;;4.00;100.00
7026;BME280;3554;42.132;24.786;2023-04-06T00:30:08;98954.97;;;3.90;100.00
7026;BME280;3554;42.132;24.786;2023-04-06T00:32:35;98962.78;;;3.89;100.00
7026;BME280;3554;42.132;24.786;2023-04-06T00:35:04;98963.91;;;3.77;100.00
7026;BME280;3554;42.132;24.786;2023-04-06T00:37:32;98949.38;;;3.69;100.00
7026;BME280;3554;42.132;24.786;2023-04-06T00:40:00;98949.19;;;3.78;100.00
7026;BME280;3554;42.132;24.786;2023-04-06T00:42:27;98954.53;;;3.72;100.00
7026;BME280;3554;42.132;24.786;2023-04-06T00:44:56;98956.13;;;3.76;100.00
7026;BME280;3554;42.132;24.786;2023-04-06T00:47:24;98940.97;;;3.59;100.00
7026;BME280;3554;42.132;24.786;2023-04-06T00:49:51;98947.59;;;3.72;100.00
7026;BME280;3554;42.132;24.786;2023-04-06T00:52:21;98954.72;;;3.61;100.00
7026;BME280;3554;42.132;24.786;2023-04-06T00:54:48;98940.97;;;3.59;100.00
7026;BME280;3554;42.132;24.786;2023-04-06T00:57:16;98918.72;;;3.51;100.00
7026;BME280;3554;42.132;24.786;2023-04-06T00:59:43;98945.34;;;3.56;100.00
7026;BME280;3554;42.132;24.786;2023-04-06T01:02:10;98935.03;;;3.54;100.00
7026;BME280;3554;42.132;24.786;2023-04-06T01:04:37;98936.84;;;3.49;100.00
7026;BME280;3554;42.132;24.786;2023-04-06T01:07:04;98935.19;;;3.47;100.00
7026;BME280;3554;42.132;24.786;2023-04-06T01:09:32;98932.63;;;3.45;100.00
7026;BME280;3554;42.132;24.786;2023-04-06T01:11:59;98921.50;;;3.42;100.00
7026;BME280;3554;42.132;24.786;2023-04-06T01:14:26;98918.84;;;3.45;100.00
7026;BME280;3554;42.132;24.786;2023-04-06T01:16:53;98905.91;;;3.45;100.00
7026;BME280;3554;42.132;24.786;2023-04-06T01:19:21;98912.72;;;3.47;100.00
7026;BME280;3554;42.132;24.786;2023-04-06T01:21:49;98910.34;;;3.38;100.00
7026;BME280;3554;42.132;24.786;2023-04-06T01:24:19;98901.88;;;3.30;100.00
7026;BME280;3554;42.132;24.786;2023-04-06T01:26:46;98894.22;;;3.25;100.00
7026;BME280;3554;42.132;24.786;2023-04-06T01:29:13;98890.88;;;3.19;100.00
7026;BME280;3554;42.132;24.786;2023-04-06T01:31:40;98881.38;;;3.21;100.00
7026;BME280;3554;42.132;24.786;2023-04-06T01:34:07;98892.34;;;3.32;100.00
7026;BME280;3554;42.132;24.786;2023-04-06T01:36:34;98885.66;;;3.22;100.00
7026;BME280;3554;42.132;24.786;2023-04-06T01:39:01;98870.34;;;3.13;100.00
7026;BME280;3554;42.132;24.786;2023-04-06T01:41:29;98864.22;;;3.15;100.00
7026;BME280;3554;42.132;24.786;2023-04-06T01:43:56;98878.72;;;3.24;100.00
7026;BME280;3554;42.132;24.786;2023-04-06T01:46:23;98883.69;;;3.33;100.00
7026;BME280;3554;42.132;24.786;2023-04-06T01:48:49;98890.66;;;3.31;100.00
7026;BME280;3554;42.132;24.786;2023-04-06T01:51:16;98894.03;;;3.33;100.00
7026;BME280;3554;42.132;24.786;2023-04-06T01:53:43;98879.56;;;3.24;100.00
7026;BME280;3554;42.132;24.786;2023-04-06T01:56:10;98880.47;;;3.23;100.00
7026;BME280;3554;42.132;24.786;2023-04-06T01:58:38;98883.84;;;3.27;100.00
7026;BME280;3554;42.132;24.786;2023-04-06T02:01:05;98891.50;;;3.32;100.00
7026;BME280;3554;42.132;24.786;2023-04-06T02:03:32;98893.16;;;3.36;100.00
7026;BME280;3554;42.132;24.786;2023-04-06T02:05:59;98862.28;;;3.26;100.00
7026;BME280;3554;42.132;24.786;2023-04-06T02:08:26;98894.91;;;3.34;100.00
7026;BME280;3554;42.132;24.786;2023-04-06T02:10:53;98887.03;;;3.40;100.00
7026;BME280;3554;42.132;24.786;2023-04-06T02:13:19;98889.69;;;3.35;100.00
7026;BME280;3554;42.132;24.786;2023-04-06T02:15:48;98891.38;;;3.38;100.00
7026;BME280;3554;42.132;24.786;2023-04-06T02:18:15;98894.13;;;3.30;100.00
7026;BME280;3554;42.132;24.786;2023-04-06T02:20:43;98899.03;;;3.42;100.00
7026;BME280;3554;42.132;24.786;2023-04-06T02:23:09;98900.00;;;3.37;100.00
7026;BME280;3554;42.132;24.786;2023-04-06T02:25:36;98899.19;;;3.36;100.00
7026;BME280;3554;42.132;24.786;2023-04-06T02:28:04;98858.06;;;3.22;100.00
7026;BME280;3554;42.132;24.786;2023-04-06T02:30:30;98896.63;;;3.35;100.00
7026;BME280;3554;42.132;24.786;2023-04-06T02:32:59;98877.75;;;3.29;100.00
7026;BME280;3554;42.132;24.786;2023-04-06T02:35:27;98897.44;;;3.38;100.00
7026;BME280;3554;42.132;24.786;2023-04-06T02:37:54;98897.22;;;3.47;100.00
7026;BME280;3554;42.132;24.786;2023-04-06T02:40:21;98896.81;;;3.24;100.00
7026;BME280;3554;42.132;24.786;2023-04-06T02:42:48;98896.75;;;3.28;100.00
7026;BME280;3554;42.132;24.786;2023-04-06T02:45:15;98899.41;;;3.24;100.00
7026;BME280;3554;42.132;24.786;2023-04-06T02:47:42;98900.13;;;3.32;100.00
7026;BME280;3554;42.132;24.786;2023-04-06T02:50:10;98891.63;;;3.24;100.00
7026;BME280;3554;42.132;24.786;2023-04-06T02:52:37;98887.44;;;3.20;100.00
7026;BME280;3554;42.132;24.786;2023-04-06T02:55:06;98884.09;;;3.13;100.00
7026;BME280;3554;42.132;24.786;2023-04-06T02:57:33;98891.03;;;3.11;100.00
7026;BME280;3554;42.132;24.786;2023-04-06T03:00:01;98840.13;;;2.69;100.00
7026;BME280;3554;42.132;24.786;2023-04-06T03:02:28;98882.34;;;3.14;100.00
7026;BME280;3554;42.132;24.786;2023-04-06T03:04:54;98880.50;;;3.20;100.00
7026;BME280;3554;42.132;24.786;2023-04-06T03:07:23;98891.00;;;3.13;100.00
7026;BME280;3554;42.132;24.786;2023-04-06T03:09:49;98888.47;;;3.11;100.00
7026;BME280;3554;42.132;24.786;2023-04-06T03:12:16;98891.88;;;3.12;100.00
7026;BME280;3554;42.132;24.786;2023-04-06T03:14:43;98879.94;;;3.05;100.00
7026;BME280;3554;42.132;24.786;2023-04-06T03:17:10;98879.91;;;3.06;100.00
7026;BME280;3554;42.132;24.786;2023-04-06T03:19:37;98873.97;;;3.01;100.00
7026;BME280;3554;42.132;24.786;2023-04-06T03:22:04;98873.91;;;3.04;100.00
7026;BME280;3554;42.132;24.786;2023-04-06T03:24:32;98865.53;;;2.93;100.00
7026;BME280;3554;42.132;24.786;2023-04-06T03:26:59;98874.97;;;2.94;100.00
7026;BME280;3554;42.132;24.786;2023-04-06T03:29:26;98878.50;;;2.92;100.00
7026;BME280;3554;42.132;24.786;2023-04-06T03:31:53;98869.00;;;2.91;100.00
7026;BME280;3554;42.132;24.786;2023-04-06T03:34:20;98870.78;;;2.89;100.00
7026;BME280;3554;42.132;24.786;2023-04-06T03:36:46;98865.34;;;3.04;100.00
7026;BME280;3554;42.132;24.786;2023-04-06T03:39:13;98878.28;;;3.01;100.00
7026;BME280;3554;42.132;24.786;2023-04-06T03:41:41;98881.81;;;2.98;100.00
7026;BME280;3554;42.132;24.786;2023-04-06T03:44:09;98874.78;;;3.05;100.00
7026;BME280;3554;42.132;24.786;2023-04-06T03:46:36;98882.63;;;3.00;100.00
7026;BME280;3554;42.132;24.786;2023-04-06T03:49:03;98871.22;;;3.10;100.00
7026;BME280;3554;42.132;24.786;2023-04-06T03:51:30;98866.94;;;3.09;100.00
7026;BME280;3554;42.132;24.786;2023-04-06T03:53:57;98874.59;;;3.14;100.00
7026;BME280;3554;42.132;24.786;2023-04-06T03:56:24;98879.69;;;3.20;100.00
7026;BME280;3554;42.132;24.786;2023-04-06T03:58:52;98877.25;;;3.11;100.00
7026;BME280;3554;42.132;24.786;2023-04-06T04:01:19;98874.63;;;3.12;100.00
7026;BME280;3554;42.132;24.786;2023-04-06T04:03:46;98870.25;;;3.16;100.00
7026;BME280;3554;42.132;24.786;2023-04-06T04:06:12;98873.47;;;3.28;100.00
7026;BME280;3554;42.132;24.786;2023-04-06T04:08:39;98871.16;;;3.56;100.00
7026;BME280;3554;42.132;24.786;2023-04-06T04:11:06;98870.69;;;3.79;100.00
7026;BME280;3554;42.132;24.786;2023-04-06T04:13:33;98875.56;;;3.92;100.00
7026;BME280;3554;42.132;24.786;2023-04-06T04:16:01;98889.31;;;3.94;100.00
7026;BME280;3554;42.132;24.786;2023-04-06T04:18:28;98893.53;;;4.00;100.00
7026;BME280;3554;42.132;24.786;2023-04-06T04:20:55;98892.81;;;3.92;100.00
7026;BME280;3554;42.132;24.786;2023-04-06T04:23:22;98898.16;;;3.86;100.00
7026;BME280;3554;42.132;24.786;2023-04-06T04:25:49;98888.38;;;3.98;100.00
7026;BME280;3554;42.132;24.786;2023-04-06T04:28:16;98872.34;;;4.19;100.00
7026;BME280;3554;42.132;24.786;2023-04-06T04:30:43;98901.78;;;4.52;100.00
7026;BME280;3554;42.132;24.786;2023-04-06T04:33:11;98915.97;;;4.73;100.00
7026;BME280;3554;42.132;24.786;2023-04-06T04:35:38;98923.13;;;4.97;100.00
7026;BME280;3554;42.132;24.786;2023-04-06T04:38:05;98936.03;;;5.00;100.00
7026;BME280;3554;42.132;24.786;2023-04-06T04:40:32;98944.25;;;4.82;100.00
7026;BME280;3554;42.132;24.786;2023-04-06T04:42:58;98942.06;;;4.65;100.00
7026;BME280;3554;42.132;24.786;2023-04-06T04:45:25;98934.50;;;4.56;100.00
7026;BME280;3554;42.132;24.786;2023-04-06T04:47:52;98932.84;;;4.54;100.00
7026;BME280;3554;42.132;24.786;2023-04-06T04:50:20;98929.50;;;4.49;100.00
7026;BME280;3554;42.132;24.786;2023-04-06T04:52:47;98934.84;;;4.43;100.00
7026;BME280;3554;42.132;24.786;2023-04-06T04:55:14;98877.88;;;4.04;100.00
7026;BME280;3554;42.132;24.786;2023-04-06T04:57:41;98903.44;;;4.19;100.00
7026;BME280;3554;42.132;24.786;2023-04-06T05:00:09;98917.44;;;4.48;100.00
7026;BME280;3554;42.132;24.786;2023-04-06T05:02:36;98904.88;;;4.31;100.00
7026;BME280;3554;42.132;24.786;2023-04-06T05:05:03;98913.81;;;4.55;100.00
7026;BME280;3554;42.132;24.786;2023-04-06T05:07:32;98887.47;;;4.38;100.00
7026;BME280;3554;42.132;24.786;2023-04-06T05:09:59;98904.34;;;4.54;100.00
7026;BME280;3554;42.132;24.786;2023-04-06T05:12:26;98910.31;;;4.57;100.00
7026;BME280;3554;42.132;24.786;2023-04-06T05:14:53;98896.28;;;4.66;100.00
7026;BME280;3554;42.132;24.786;2023-04-06T05:17:20;98911.59;;;4.75;100.00
7026;BME280;3554;42.132;24.786;2023-04-06T05:19:47;98907.88;;;4.85;100.00
7026;BME280;3554;42.132;24.786;2023-04-06T05:22:14;98913.19;;;4.80;100.00
7026;BME280;3554;42.132;24.786;2023-04-06T05:24:44;98906.75;;;4.96;100.00
7026;BME280;3554;42.132;24.786;2023-04-06T05:27:11;98914.25;;;5.07;100.00
7026;BME280;3554;42.132;24.786;2023-04-06T05:29:38;98911.41;;;5.16;100.00
7026;BME280;3554;42.132;24.786;2023-04-06T05:32:05;98915.59;;;5.21;100.00
7026;BME280;3554;42.132;24.786;2023-04-06T05:34:32;98910.88;;;5.34;100.00
7026;BME280;3554;42.132;24.786;2023-04-06T05:36:59;98905.50;;;5.41;100.00
7026;BME280;3554;42.132;24.786;2023-04-06T05:39:26;98838.22;;;5.35;100.00
7026;BME280;3554;42.132;24.786;2023-04-06T05:41:54;98904.56;;;5.75;100.00
7026;BME280;3554;42.132;24.786;2023-04-06T05:44:21;98906.91;;;6.13;100.00
7026;BME280;3554;42.132;24.786;2023-04-06T05:46:48;98906.63;;;6.49;100.00
7026;BME280;3554;42.132;24.786;2023-04-06T05:49:15;98914.50;;;6.74;100.00
7026;BME280;3554;42.132;24.786;2023-04-06T05:51:42;98905.94;;;6.97;100.00
7026;BME280;3554;42.132;24.786;2023-04-06T05:54:09;98909.16;;;7.03;100.00
7026;BME280;3554;42.132;24.786;2023-04-06T05:56:36;98932.44;;;7.08;100.00
7026;BME280;3554;42.132;24.786;2023-04-06T05:59:04;98900.31;;;7.09;100.00
7026;BME280;3554;42.132;24.786;2023-04-06T06:01:32;98889.47;;;6.70;100.00
7026;BME280;3554;42.132;24.786;2023-04-06T06:04:00;98926.59;;;7.01;100.00
7026;BME280;3554;42.132;24.786;2023-04-06T06:06:28;98918.50;;;7.09;100.00
7026;BME280;3554;42.132;24.786;2023-04-06T06:08:55;98918.03;;;6.72;100.00
7026;BME280;3554;42.132;24.786;2023-04-06T06:11:24;98921.16;;;6.83;100.00
7026;BME280;3554;42.132;24.786;2023-04-06T06:13:51;98919.81;;;6.70;100.00
7026;BME280;3554;42.132;24.786;2023-04-06T06:16:19;98913.44;;;6.80;100.00
7026;BME280;3554;42.132;24.786;2023-04-06T06:18:46;98903.22;;;7.00;100.00
7026;BME280;3554;42.132;24.786;2023-04-06T06:21:13;98919.19;;;7.15;100.00
7026;BME280;3554;42.132;24.786;2023-04-06T06:23:42;98926.31;;;7.35;100.00
7026;BME280;3554;42.132;24.786;2023-04-06T06:26:09;98908.16;;;7.32;100.00
7026;BME280;3554;42.132;24.786;2023-04-06T06:28:36;98916.72;;;7.35;100.00
7026;BME280;3554;42.132;24.786;2023-04-06T06:31:03;98927.88;;;7.39;100.00
7026;BME280;3554;42.132;24.786;2023-04-06T06:33:31;98928.59;;;7.42;100.00
7026;BME280;3554;42.132;24.786;2023-04-06T06:35:58;98931.34;;;7.39;100.00
7026;BME280;3554;42.132;24.786;2023-04-06T06:38:25;98928.63;;;7.67;100.00
7026;BME280;3554;42.132;24.786;2023-04-06T06:40:52;98926.25;;;7.84;100.00
7026;BME280;3554;42.132;24.786;2023-04-06T06:43:19;98926.19;;;7.86;100.00
7026;BME280;3554;42.132;24.786;2023-04-06T06:45:46;98947.59;;;7.94;100.00
7026;BME280;3554;42.132;24.786;2023-04-06T06:48:13;98944.28;;;7.89;100.00
7026;BME280;3554;42.132;24.786;2023-04-06T06:50:41;98932.59;;;8.00;100.00
7026;BME280;3554;42.132;24.786;2023-04-06T06:53:08;98941.75;;;8.10;100.00
7026;BME280;3554;42.132;24.786;2023-04-06T06:55:36;98936.91;;;8.23;100.00
7026;BME280;3554;42.132;24.786;2023-04-06T06:58:03;98935.13;;;8.02;100.00
7026;BME280;3554;42.132;24.786;2023-04-06T07:00:29;98932.97;;;8.13;100.00
7026;BME280;3554;42.132;24.786;2023-04-06T07:02:56;98931.31;;;8.33;100.00
7026;BME280;3554;42.132;24.786;2023-04-06T07:05:23;98933.47;;;8.45;100.00
7026;BME280;3554;42.132;24.786;2023-04-06T07:07:52;98942.41;;;8.38;100.00
7026;BME280;3554;42.132;24.786;2023-04-06T07:10:18;98932.34;;;8.52;100.00
7026;BME280;3554;42.132;24.786;2023-04-06T07:12:45;98921.41;;;8.43;100.00
7026;BME280;3554;42.132;24.786;2023-04-06T07:15:12;98941.06;;;8.73;100.00
7026;BME280;3554;42.132;24.786;2023-04-06T07:17:39;98945.91;;;8.60;100.00
7026;BME280;3554;42.132;24.786;2023-04-06T07:20:07;98931.97;;;8.40;100.00
7026;BME280;3554;42.132;24.786;2023-04-06T07:22:34;98941.91;;;8.52;100.00
7026;BME280;3554;42.132;24.786;2023-04-06T07:25:03;98928.84;;;8.30;100.00
7026;BME280;3554;42.132;24.786;2023-04-06T07:27:30;98943.63;;;8.30;100.00
7026;BME280;3554;42.132;24.786;2023-04-06T07:29:56;98939.66;;;8.64;100.00
7026;BME280;3554;42.132;24.786;2023-04-06T07:32:23;98881.25;;;8.47;100.00
7026;BME280;3554;42.132;24.786;2023-04-06T07:34:50;98947.19;;;8.72;100.00
7026;BME280;3554;42.132;24.786;2023-04-06T07:37:17;98944.09;;;8.62;100.00
7026;BME280;3554;42.132;24.786;2023-04-06T07:39:44;98946.63;;;8.86;100.00
7026;BME280;3554;42.132;24.786;2023-04-06T07:42:13;98947.78;;;9.00;100.00
7026;BME280;3554;42.132;24.786;2023-04-06T07:44:40;98957.25;;;9.23;100.00
7026;BME280;3554;42.132;24.786;2023-04-06T07:47:06;98965.78;;;9.06;100.00
7026;BME280;3554;42.132;24.786;2023-04-06T07:49:33;98941.44;;;9.06;100.00
7026;BME280;3554;42.132;24.786;2023-04-06T07:52:00;98949.28;;;9.26;100.00
7026;BME280;3554;42.132;24.786;2023-04-06T07:54:28;98956.88;;;9.32;100.00
7026;BME280;3554;42.132;24.786;2023-04-06T07:56:55;98953.47;;;9.30;100.00
7026;BME280;3554;42.132;24.786;2023-04-06T07:59:23;98954.19;;;9.33;100.00
7026;BME280;3554;42.132;24.786;2023-04-06T08:01:50;98954.72;;;9.41;100.00
7026;BME280;3554;42.132;24.786;2023-04-06T08:04:17;98954.38;;;9.49;100.00
7026;BME280;3554;42.132;24.786;2023-04-06T08:06:44;98950.34;;;9.42;100.00
7026;BME280;3554;42.132;24.786;2023-04-06T08:09:10;98956.09;;;9.30;100.00
7026;BME280;3554;42.132;24.786;2023-04-06T08:11:37;98924.28;;;9.20;100.00
7026;BME280;3554;42.132;24.786;2023-04-06T08:14:04;98945.56;;;9.51;100.00
7026;BME280;3554;42.132;24.786;2023-04-06T08:16:32;98948.66;;;9.61;100.00
7026;BME280;3554;42.132;24.786;2023-04-06T08:18:59;98934.41;;;9.68;100.00
7026;BME280;3554;42.132;24.786;2023-04-06T08:21:26;98941.16;;;9.92;100.00
7026;BME280;3554;42.132;24.786;2023-04-06T08:23:53;98945.72;;;9.87;100.00
7026;BME280;3554;42.132;24.786;2023-04-06T08:26:20;98953.75;;;9.83;100.00
7026;BME280;3554;42.132;24.786;2023-04-06T08:28:47;98948.00;;;9.95;100.00
7026;BME280;3554;42.132;24.786;2023-04-06T08:31:13;98940.84;;;9.80;100.00
7026;BME280;3554;42.132;24.786;2023-04-06T08:33:42;98946.47;;;9.70;100.00
7026;BME280;3554;42.132;24.786;2023-04-06T08:36:10;98942.16;;;9.90;100.00
7026;BME280;3554;42.132;24.786;2023-04-06T08:38:37;98928.84;;;9.94;100.00
7026;BME280;3554;42.132;24.786;2023-04-06T08:41:08;98933.09;;;9.97;100.00
7026;BME280;3554;42.132;24.786;2023-04-06T08:43:40;98868.28;;;9.85;100.00
7026;BME280;3554;42.132;24.786;2023-04-06T08:46:08;98921.00;;;10.14;100.00
7026;BME280;3554;42.132;24.786;2023-04-06T08:48:36;98912.53;;;10.09;100.00
7026;BME280;3554;42.132;24.786;2023-04-06T08:51:05;98919.91;;;10.37;100.00
7026;BME280;3554;42.132;24.786;2023-04-06T08:53:32;98912.53;;;10.45;100.00
7026;BME280;3554;42.132;24.786;2023-04-06T08:55:59;98903.19;;;10.58;100.00
7026;BME280;3554;42.132;24.786;2023-04-06T08:58:29;98887.84;;;10.69;100.00
7026;BME280;3554;42.132;24.786;2023-04-06T09:00:58;98907.44;;;10.60;100.00
7026;BME280;3554;42.132;24.786;2023-04-06T09:03:27;98900.50;;;10.59;100.00
7026;BME280;3554;42.132;24.786;2023-04-06T09:05:55;98878.91;;;10.37;100.00
7026;BME280;3554;42.132;24.786;2023-04-06T09:08:23;98895.28;;;10.59;100.00
7026;BME280;3554;42.132;24.786;2023-04-06T09:10:50;98880.97;;;10.66;100.00
7026;BME280;3554;42.132;24.786;2023-04-06T09:13:17;98895.94;;;10.82;100.00
7026;BME280;3554;42.132;24.786;2023-04-06T09:15:44;98892.00;;;10.90;100.00
7026;BME280;3554;42.132;24.786;2023-04-06T09:18:11;98878.91;;;10.90;100.00
7026;BME280;3554;42.132;24.786;2023-04-06T09:20:38;98889.88;;;11.15;100.00
7026;BME280;3554;42.132;24.786;2023-04-06T09:23:04;98829.94;;;10.92;100.00
7026;BME280;3554;42.132;24.786;2023-04-06T09:25:33;98864.66;;;11.30;100.00
7026;BME280;3554;42.132;24.786;2023-04-06T09:28:01;98874.25;;;11.46;100.00
7026;BME280;3554;42.132;24.786;2023-04-06T09:30:29;98885.94;;;11.41;100.00
7026;BME280;3554;42.132;24.786;2023-04-06T09:32:57;98874.88;;;11.51;100.00
7026;BME280;3554;42.132;24.786;2023-04-06T09:35:25;98857.78;;;11.44;100.00
7026;BME280;3554;42.132;24.786;2023-04-06T09:37:54;98877.28;;;11.39;100.00
7026;BME280;3554;42.132;24.786;2023-04-06T09:40:22;98874.63;;;11.56;100.00
7026;BME280;3554;42.132;24.786;2023-04-06T09:42:51;98860.75;;;11.54;100.00
7026;BME280;3554;42.132;24.786;2023-04-06T09:45:19;98864.84;;;11.76;100.00
7026;BME280;3554;42.132;24.786;2023-04-06T09:47:47;98867.84;;;11.69;100.00
7026;BME280;3554;42.132;24.786;2023-04-06T09:50:15;98872.53;;;11.79;98.47
7026;BME280;3554;42.132;24.786;2023-04-06T09:52:46;98866.13;;;11.85;95.02
7026;BME280;3554;42.132;24.786;2023-04-06T09:55:19;98861.00;;;11.82;96.90
7026;BME280;3554;42.132;24.786;2023-04-06T09:57:52;98872.06;;;11.71;93.99
7026;BME280;3554;42.132;24.786;2023-04-06T10:00:22;98859.16;;;11.51;95.57
7026;BME280;3554;42.132;24.786;2023-04-06T10:02:54;98861.53;;;11.56;95.05
7026;BME280;3554;42.132;24.786;2023-04-06T10:05:30;98863.97;;;11.59;95.62
7026;BME280;3554;42.132;24.786;2023-04-06T10:08:03;98847.97;;;11.65;94.85
7026;BME280;3554;42.132;24.786;2023-04-06T10:10:32;98833.47;;;11.91;96.71
7026;BME280;3554;42.132;24.786;2023-04-06T10:13:00;98832.97;;;12.00;95.77
7026;BME280;3554;42.132;24.786;2023-04-06T10:15:29;98820.34;;;11.91;95.53
7026;BME280;3554;42.132;24.786;2023-04-06T10:17:56;98827.69;;;11.84;96.52
7026;BME280;3554;42.132;24.786;2023-04-06T10:20:27;98766.13;;;11.75;99.62
7026;BME280;3554;42.132;24.786;2023-04-06T10:23:01;98828.72;;;11.97;97.47
7026;BME280;3554;42.132;24.786;2023-04-06T10:25:31;98831.75;;;11.90;95.52
7026;BME280;3554;42.132;24.786;2023-04-06T10:28:01;98833.47;;;11.91;98.72
7026;BME280;3554;42.132;24.786;2023-04-06T10:30:28;98822.97;;;12.06;98.38
7026;BME280;3554;42.132;24.786;2023-04-06T10:32:55;98821.94;;;12.09;97.19
7026;BME280;3554;42.132;24.786;2023-04-06T10:35:22;98808.84;;;11.93;98.06
7026;BME280;3554;42.132;24.786;2023-04-06T10:37:51;98806.88;;;12.12;100.00
7026;BME280;3554;42.132;24.786;2023-04-06T10:40:23;98784.13;;;11.97;100.00
7026;BME280;3554;42.132;24.786;2023-04-06T10:42:51;98737.75;;;11.51;96.31
7026;BME280;3554;42.132;24.786;2023-04-06T10:45:24;98822.97;;;12.22;99.58
7026;BME280;3554;42.132;24.786;2023-04-06T10:47:52;98829.56;;;12.13;97.99
7026;BME280;3554;42.132;24.786;2023-04-06T10:50:20;98720.59;;;11.61;96.21
7026;BME280;3554;42.132;24.786;2023-04-06T10:52:47;98812.06;;;12.14;95.99
7026;BME280;3554;42.132;24.786;2023-04-06T10:55:25;98819.94;;;12.14;93.84
7026;BME280;3554;42.132;24.786;2023-04-06T10:57:52;98819.56;;;12.20;92.91
7026;BME280;3554;42.132;24.786;2023-04-06T11:00:20;98823.78;;;12.38;91.67
7026;BME280;3554;42.132;24.786;2023-04-06T11:02:48;98810.34;;;12.28;89.79
7026;BME280;3554;42.132;24.786;2023-04-06T11:05:15;98818.97;;;12.30;88.07
7026;BME280;3554;42.132;24.786;2023-04-06T11:07:44;98831.94;;;12.33;86.07
7026;BME280;3554;42.132;24.786;2023-04-06T11:10:11;98833.22;;;12.26;84.30
7026;BME280;3554;42.132;24.786;2023-04-06T11:12:37;98838.63;;;12.23;81.79
7026;BME280;3554;42.132;24.786;2023-04-06T11:15:05;98841.47;;;12.50;84.74
7026;BME280;3554;42.132;24.786;2023-04-06T11:17:34;98793.59;;;12.31;83.11
7026;BME280;3554;42.132;24.786;2023-04-06T11:20:03;98824.59;;;12.24;79.48
7026;BME280;3554;42.132;24.786;2023-04-06T11:22:31;98798.94;;;12.14;81.74
7026;BME280;3554;42.132;24.786;2023-04-06T11:25:05;98843.41;;;12.62;79.98
7026;BME280;3554;42.132;24.786;2023-04-06T11:27:33;98839.78;;;12.49;82.13
7026;BME280;3554;42.132;24.786;2023-04-06T11:30:00;98828.50;;;12.62;79.13
7026;BME280;3554;42.132;24.786;2023-04-06T11:32:27;98832.06;;;12.61;80.67
7026;BME280;3554;42.132;24.786;2023-04-06T11:34:57;98821.56;;;12.61;79.73
7026;BME280;3554;42.132;24.786;2023-04-06T11:37:27;98827.88;;;12.73;80.86
7026;BME280;3554;42.132;24.786;2023-04-06T11:39:55;98815.78;;;12.70;77.35
7026;BME280;3554;42.132;24.786;2023-04-06T11:42:23;98835.06;;;12.85;76.85
7026;BME280;3554;42.132;24.786;2023-04-06T11:44:51;98820.03;;;12.87;76.17
7026;BME280;3554;42.132;24.786;2023-04-06T11:47:19;98833.44;;;12.82;74.93
7026;BME280;3554;42.132;24.786;2023-04-06T11:49:48;98830.53;;;12.57;76.93
7026;BME280;3554;42.132;24.786;2023-04-06T11:52:17;98832.59;;;12.52;76.91
7026;BME280;3554;42.132;24.786;2023-04-06T11:54:45;98832.31;;;12.57;75.63
7026;BME280;3554;42.132;24.786;2023-04-06T11:57:13;98813.63;;;12.47;76.23
7026;BME280;3554;42.132;24.786;2023-04-06T11:59:40;98825.47;;;12.54;76.37
7026;BME280;3554;42.132;24.786;2023-04-06T12:02:07;98819.13;;;12.43;76.29
7026;BME280;3554;42.132;24.786;2023-04-06T12:04:33;98787.78;;;12.10;77.33
7026;BME280;3554;42.132;24.786;2023-04-06T12:07:01;98819.97;;;12.43;77.58
7026;BME280;3554;42.132;24.786;2023-04-06T12:09:28;98823.94;;;12.50;79.00
7026;BME280;3554;42.132;24.786;2023-04-06T12:11:56;98817.22;;;12.60;78.04
7026;BME280;3554;42.132;24.786;2023-04-06T12:14:24;98812.16;;;12.57;76.46
7026;BME280;3554;42.132;24.786;2023-04-06T12:16:50;98808.72;;;12.71;77.14
7026;BME280;3554;42.132;24.786;2023-04-06T12:19:17;98813.09;;;12.86;77.65
7026;BME280;3554;42.132;24.786;2023-04-06T12:21:44;98816.19;;;13.08;77.63
7026;BME280;3554;42.132;24.786;2023-04-06T12:24:11;98821.81;;;13.16;75.17
7026;BME280;3554;42.132;24.786;2023-04-06T12:26:38;98824.47;;;13.16;75.58
7026;BME280;3554;42.132;24.786;2023-04-06T12:29:08;98815.16;;;13.25;77.46
7026;BME280;3554;42.132;24.786;2023-04-06T12:31:36;98796.41;;;13.31;76.01
7026;BME280;3554;42.132;24.786;2023-04-06T12:34:04;98816.13;;;13.52;74.56
7026;BME280;3554;42.132;24.786;2023-04-06T12:36:31;98811.34;;;13.44;74.58
7026;BME280;3554;42.132;24.786;2023-04-06T12:38:58;98800.06;;;13.28;74.89
7026;BME280;3554;42.132;24.786;2023-04-06T12:41:25;98753.69;;;13.27;73.91
7026;BME280;3554;42.132;24.786;2023-04-06T12:43:52;98805.25;;;13.58;76.23
7026;BME280;3554;42.132;24.786;2023-04-06T12:46:20;98800.03;;;13.98;75.40
7026;BME280;3554;42.132;24.786;2023-04-06T12:48:48;98796.34;;;14.01;74.70
7026;BME280;3554;42.132;24.786;2023-04-06T12:51:14;98791.66;;;13.92;74.22
7026;BME280;3554;42.132;24.786;2023-04-06T12:53:42;98800.56;;;14.04;71.91
7026;BME280;3554;42.132;24.786;2023-04-06T12:56:15;98785.59;;;13.77;70.17
7026;BME280;3554;42.132;24.786;2023-04-06T12:58:42;98789.78;;;13.94;71.05
7026;BME280;3554;42.132;24.786;2023-04-06T13:01:10;98792.16;;;13.84;71.52
7026;BME280;3554;42.132;24.786;2023-04-06T13:03:40;98648.59;;;12.85;71.54
7026;BME280;3554;42.132;24.786;2023-04-06T13:06:07;98791.09;;;13.87;70.60
7026;BME280;3554;42.132;24.786;2023-04-06T13:08:35;98781.09;;;13.65;69.38
7026;BME280;3554;42.132;24.786;2023-04-06T13:11:02;98787.88;;;13.55;69.01